sensor_id;sensor_type;location;lat;lon;timestamp;pressure;altitude;pressure_sealevel;temperature;humidity
12146;BME280;6136;47.032;15.398;2024-03-23T00:55:41;97061.69;;;8.47;100.00
12146;BME280;6136;47.032;15.398;2024-03-23T00:58:08;97056.13;;;8.38;100.00
12146;BME280;6136;47.032;15.398;2024-03-23T01:00:35;97056.69;;;8.29;100.00
12146;BME280;6136;47.032;15.398;2024-03-23T01:03:01;97054.81;;;8.31;100.00
12146;BME280;6136;47.032;15.398;2024-03-23T01:05:30;97049.03;;;8.24;100.00
12146;BME280;6136;47.032;15.398;2024-03-23T01:07:56;97048.56;;;8.17;100.00
12146;BME280;6136;47.032;15.398;2024-03-23T01:10:23;97041.66;;;8.01;100.00
12146;BME280;6136;47.032;15.398;2024-03-23T01:12:49;97041.19;;;7.94;100.00
12146;BME280;6136;47.032;15.398;2024-03-23T01:15:16;97041.19;;;7.94;100.00
12146;BME280;6136;47.032;15.398;2024-03-23T01:17:42;97035.44;;;7.88;100.00
12146;BME280;6136;47.032;15.398;2024-03-23T01:20:10;97032.22;;;7.83;100.00
12146;BME280;6136;47.032;15.398;2024-03-23T01:22:37;97032.69;;;7.75;100.00
12146;BME280;6136;47.032;15.398;2024-03-23T01:25:05;97035.16;;;7.78;100.00
12146;BME280;6136;47.032;15.398;2024-03-23T01:27:31;97027.69;;;7.70;100.00
12146;BME280;6136;47.032;15.398;2024-03-23T01:29:58;97021.91;;;7.64;100.00
12146;BME280;6136;47.032;15.398;2024-03-23T01:32:24;97022.09;;;7.61;100.00
12146;BME280;6136;47.032;15.398;2024-03-23T01:34:51;97015.13;;;7.60;100.00
12146;BME280;6136;47.032;15.398;2024-03-23T01:37:17;97017.00;;;7.58;100.00
12146;BME280;6136;47.032;15.398;2024-03-23T01:39:46;97023.59;;;7.65;100.00
12146;BME280;6136;47.032;15.398;2024-03-23T01:42:12;97013.44;;;7.59;100.00
12146;BME280;6136;47.032;15.398;2024-03-23T01:44:40;97012.19;;;7.50;100.00
12146;BME280;6136;47.032;15.398;2024-03-23T01:47:06;97018.75;;;7.43;100.00
12146;BME280;6136;47.032;15.398;2024-03-23T01:49:33;97007.94;;;7.48;100.00
12146;BME280;6136;47.032;15.398;2024-03-23T01:52:00;97012.81;;;7.39;100.00
12146;BME280;6136;47.032;15.398;2024-03-23T01:54:27;97001.44;;;7.39;100.00
12146;BME280;6136;47.032;15.398;2024-03-23T01:56:56;97002.81;;;7.30;100.00
12146;BME280;6136;47.032;15.398;2024-03-23T01:59:23;96992.78;;;7.21;100.00
12146;BME280;6136;47.032;15.398;2024-03-23T02:01:49;96991.78;;;7.24;100.00
12146;BME280;6136;47.032;15.398;2024-03-23T02:04:18;96986.03;;;7.17;100.00
12146;BME280;6136;47.032;15.398;2024-03-23T02:06:44;96980.63;;;7.19;100.00
12146;BME280;6136;47.032;15.398;2024-03-23T02:09:12;96969.72;;;7.11;100.00
12146;BME280;6136;47.032;15.398;2024-03-23T02:11:39;96977.50;;;7.12;100.00
12146;BME280;6136;47.032;15.398;2024-03-23T02:14:07;96975.22;;;7.06;100.00
12146;BME280;6136;47.032;15.398;2024-03-23T02:16:33;96970.50;;;6.97;100.00
12146;BME280;6136;47.032;15.398;2024-03-23T02:19:01;96966.69;;;7.03;100.00
12146;BME280;6136;47.032;15.398;2024-03-23T02:21:27;96961.66;;;6.98;100.00
12146;BME280;6136;47.032;15.398;2024-03-23T02:24:00;96958.09;;;6.99;100.00
12146;BME280;6136;47.032;15.398;2024-03-23T02:26:26;96956.66;;;6.93;100.00
12146;BME280;6136;47.032;15.398;2024-03-23T02:28:53;96949.78;;;6.91;100.00
12146;BME280;6136;47.032;15.398;2024-03-23T02:31:19;96949.97;;;6.88;100.00
12146;BME280;6136;47.032;15.398;2024-03-23T02:33:46;96939.31;;;6.89;100.00
12146;BME280;6136;47.032;15.398;2024-03-23T02:36:12;96926.28;;;6.88;100.00
12146;BME280;6136;47.032;15.398;2024-03-23T02:38:39;96932.22;;;6.76;100.00
12146;BME280;6136;47.032;15.398;2024-03-23T02:41:07;96933.50;;;6.69;100.00
12146;BME280;6136;47.032;15.398;2024-03-23T02:43:34;96939.53;;;6.71;100.00
12146;BME280;6136;47.032;15.398;2024-03-23T02:46:00;96936.81;;;6.72;100.00
12146;BME280;6136;47.032;15.398;2024-03-23T02:48:28;96932.06;;;6.63;100.00
12146;BME280;6136;47.032;15.398;2024-03-23T02:50:54;96942.34;;;6.68;100.00
12146;BME280;6136;47.032;15.398;2024-03-23T02:53:22;96945.25;;;6.63;100.00
12146;BME280;6136;47.032;15.398;2024-03-23T02:55:48;96934.13;;;6.58;100.00
12146;BME280;6136;47.032;15.398;2024-03-23T02:58:16;96930.81;;;6.54;100.00
12146;BME280;6136;47.032;15.398;2024-03-23T03:00:42;96922.50;;;6.46;100.00
12146;BME280;6136;47.032;15.398;2024-03-23T03:03:09;96920.63;;;6.48;100.00
12146;BME280;6136;47.032;15.398;2024-03-23T03:05:36;96918.34;;;6.42;100.00
12146;BME280;6136;47.032;15.398;2024-03-23T03:08:03;96918.09;;;6.31;100.00
12146;BME280;6136;47.032;15.398;2024-03-23T03:10:30;96910.03;;;6.34;100.00
12146;BME280;6136;47.032;15.398;2024-03-23T03:12:58;96922.59;;;6.29;100.00
12146;BME280;6136;47.032;15.398;2024-03-23T03:15:26;96909.69;;;6.24;100.00
12146;BME280;6136;47.032;15.398;2024-03-23T03:17:53;96906.88;;;6.12;100.00
12146;BME280;6136;47.032;15.398;2024-03-23T03:20:20;96908.16;;;6.05;100.00
12146;BME280;6136;47.032;15.398;2024-03-23T03:22:47;96904.75;;;6.03;100.00
12146;BME280;6136;47.032;15.398;2024-03-23T03:25:14;96906.94;;;5.95;100.00
12146;BME280;6136;47.032;15.398;2024-03-23T03:27:40;96897.47;;;5.92;100.00
12146;BME280;6136;47.032;15.398;2024-03-23T03:30:09;96901.88;;;5.92;100.00
12146;BME280;6136;47.032;15.398;2024-03-23T03:32:36;96900.19;;;5.91;100.00
12146;BME280;6136;47.032;15.398;2024-03-23T03:35:04;96895.22;;;5.84;100.00
12146;BME280;6136;47.032;15.398;2024-03-23T03:37:30;96902.25;;;5.84;100.00
12146;BME280;6136;47.032;15.398;2024-03-23T03:39:57;96904.88;;;5.84;100.00
12146;BME280;6136;47.032;15.398;2024-03-23T03:42:23;96904.53;;;5.74;100.00
12146;BME280;6136;47.032;15.398;2024-03-23T03:44:50;96898.72;;;5.85;100.00
12146;BME280;6136;47.032;15.398;2024-03-23T03:47:18;96888.88;;;5.89;100.00
12146;BME280;6136;47.032;15.398;2024-03-23T03:49:47;96889.97;;;5.84;100.00
12146;BME280;6136;47.032;15.398;2024-03-23T03:52:13;96889.81;;;5.88;100.00
12146;BME280;6136;47.032;15.398;2024-03-23T03:54:40;96881.66;;;5.76;100.00
12146;BME280;6136;47.032;15.398;2024-03-23T03:57:06;96892.16;;;5.76;100.00
12146;BME280;6136;47.032;15.398;2024-03-23T03:59:33;96885.72;;;5.82;100.00
12146;BME280;6136;47.032;15.398;2024-03-23T04:02:00;96881.31;;;5.82;100.00
12146;BME280;6136;47.032;15.398;2024-03-23T04:04:27;96888.03;;;5.88;100.00
12146;BME280;6136;47.032;15.398;2024-03-23T04:06:59;96875.75;;;5.89;100.00
12146;BME280;6136;47.032;15.398;2024-03-23T04:09:26;96878.38;;;5.89;100.00
12146;BME280;6136;47.032;15.398;2024-03-23T04:11:53;96865.06;;;5.92;100.00
12146;BME280;6136;47.032;15.398;2024-03-23T04:14:20;96869.47;;;5.91;100.00
12146;BME280;6136;47.032;15.398;2024-03-23T04:16:46;96861.50;;;5.93;100.00
12146;BME280;6136;47.032;15.398;2024-03-23T04:19:13;96853.50;;;5.94;100.00
12146;BME280;6136;47.032;15.398;2024-03-23T04:21:40;96848.38;;;5.93;100.00
12146;BME280;6136;47.032;15.398;2024-03-23T04:24:09;96852.06;;;5.89;100.00
12146;BME280;6136;47.032;15.398;2024-03-23T04:29:34;96860.56;;;5.94;100.00
12146;BME280;6136;47.032;15.398;2024-03-23T04:32:01;96858.53;;;5.99;100.00
12146;BME280;6136;47.032;15.398;2024-03-23T04:34:27;96857.34;;;6.04;100.00
12146;BME280;6136;47.032;15.398;2024-03-23T04:36:55;96849.53;;;6.03;100.00
12146;BME280;6136;47.032;15.398;2024-03-23T04:39:22;96855.06;;;5.98;100.00
12146;BME280;6136;47.032;15.398;2024-03-23T04:41:49;96856.25;;;5.93;100.00
12146;BME280;6136;47.032;15.398;2024-03-23T04:44:16;96847.31;;;5.95;100.00
12146;BME280;6136;47.032;15.398;2024-03-23T04:46:43;96853.63;;;5.93;100.00
12146;BME280;6136;47.032;15.398;2024-03-23T04:49:12;96846.31;;;5.98;100.00
12146;BME280;6136;47.032;15.398;2024-03-23T04:51:40;96845.13;;;6.03;100.00
12146;BME280;6136;47.032;15.398;2024-03-23T04:54:11;96855.56;;;6.05;100.00
12146;BME280;6136;47.032;15.398;2024-03-23T04:56:40;96852.94;;;6.05;100.00
12146;BME280;6136;47.032;15.398;2024-03-23T04:59:08;96850.31;;;6.05;100.00
12146;BME280;6136;47.032;15.398;2024-03-23T05:01:34;96849.88;;;6.12;100.00
12146;BME280;6136;47.032;15.398;2024-03-23T05:04:08;96845.28;;;6.16;100.00
12146;BME280;6136;47.032;15.398;2024-03-23T05:06:34;96828.22;;;6.23;100.00
12146;BME280;6136;47.032;15.398;2024-03-23T05:09:01;96832.97;;;6.32;100.00
12146;BME280;6136;47.032;15.398;2024-03-23T05:11:31;96826.25;;;6.42;100.00
12146;BME280;6136;47.032;15.398;2024-03-23T05:14:00;96824.94;;;6.49;100.00
12146;BME280;6136;47.032;15.398;2024-03-23T05:16:28;96817.47;;;6.57;100.00
12146;BME280;6136;47.032;15.398;2024-03-23T05:18:55;96815.41;;;6.62;100.00
12146;BME280;6136;47.032;15.398;2024-03-23T05:21:21;96818.59;;;6.68;100.00
12146;BME280;6136;47.032;15.398;2024-03-23T05:23:48;96812.41;;;6.69;100.00
12146;BME280;6136;47.032;15.398;2024-03-23T05:26:14;96808.06;;;6.68;100.00
12146;BME280;6136;47.032;15.398;2024-03-23T05:28:42;96822.41;;;6.78;100.00
12146;BME280;6136;47.032;15.398;2024-03-23T05:31:09;96818.09;;;6.91;100.00
12146;BME280;6136;47.032;15.398;2024-03-23T05:33:37;96818.13;;;7.05;100.00
12146;BME280;6136;47.032;15.398;2024-03-23T05:36:04;96810.88;;;7.09;100.00
12146;BME280;6136;47.032;15.398;2024-03-23T05:38:34;96815.31;;;7.22;100.00
12146;BME280;6136;47.032;15.398;2024-03-23T05:41:00;96802.13;;;7.36;100.00
12146;BME280;6136;47.032;15.398;2024-03-23T05:43:27;96803.75;;;7.53;100.00
12146;BME280;6136;47.032;15.398;2024-03-23T05:45:54;96802.13;;;7.65;100.00
12146;BME280;6136;47.032;15.398;2024-03-23T05:48:23;96806.81;;;7.74;100.00
12146;BME280;6136;47.032;15.398;2024-03-23T05:50:49;96800.22;;;7.81;100.00
12146;BME280;6136;47.032;15.398;2024-03-23T05:53:17;96793.50;;;7.90;100.00
12146;BME280;6136;47.032;15.398;2024-03-23T05:55:44;96807.16;;;7.96;100.00
12146;BME280;6136;47.032;15.398;2024-03-23T05:58:11;96802.22;;;8.04;100.00
12146;BME280;6136;47.032;15.398;2024-03-23T06:00:37;96793.72;;;8.13;100.00
12146;BME280;6136;47.032;15.398;2024-03-23T06:03:05;96801.59;;;8.28;100.00
12146;BME280;6136;47.032;15.398;2024-03-23T06:05:32;96802.69;;;8.38;100.00
12146;BME280;6136;47.032;15.398;2024-03-23T06:07:59;96807.38;;;8.47;100.00
12146;BME280;6136;47.032;15.398;2024-03-23T06:10:25;96799.81;;;8.55;100.00
12146;BME280;6136;47.032;15.398;2024-03-23T06:12:52;96796.75;;;8.61;100.00
12146;BME280;6136;47.032;15.398;2024-03-23T06:15:19;96793.06;;;8.64;100.00
12146;BME280;6136;47.032;15.398;2024-03-23T06:17:46;96792.88;;;8.79;100.00
12146;BME280;6136;47.032;15.398;2024-03-23T06:20:12;96779.41;;;8.97;100.00
12146;BME280;6136;47.032;15.398;2024-03-23T06:22:41;96780.00;;;9.13;100.00
12146;BME280;6136;47.032;15.398;2024-03-23T06:25:07;96781.16;;;9.34;100.00
12146;BME280;6136;47.032;15.398;2024-03-23T06:27:35;96786.09;;;9.64;100.00
12146;BME280;6136;47.032;15.398;2024-03-23T06:30:01;96780.50;;;9.68;100.00
12146;BME280;6136;47.032;15.398;2024-03-23T06:32:28;96781.00;;;9.73;100.00
12146;BME280;6136;47.032;15.398;2024-03-23T06:34:54;96774.97;;;9.84;100.00
12146;BME280;6136;47.032;15.398;2024-03-23T06:37:21;96769.97;;;9.92;99.87
12146;BME280;6136;47.032;15.398;2024-03-23T06:39:49;96770.34;;;9.99;99.55
12146;BME280;6136;47.032;15.398;2024-03-23T06:42:16;96772.06;;;10.00;99.67
12146;BME280;6136;47.032;15.398;2024-03-23T06:44:43;96773.16;;;10.21;98.14
12146;BME280;6136;47.032;15.398;2024-03-23T06:47:10;96777.53;;;10.33;98.53
12146;BME280;6136;47.032;15.398;2024-03-23T06:49:37;96775.19;;;10.41;97.84
12146;BME280;6136;47.032;15.398;2024-03-23T06:52:04;96772.84;;;10.61;93.58
12146;BME280;6136;47.032;15.398;2024-03-23T06:54:31;96763.94;;;10.62;91.88
12146;BME280;6136;47.032;15.398;2024-03-23T06:56:58;96772.50;;;10.65;91.61
12146;BME280;6136;47.032;15.398;2024-03-23T06:59:26;96770.00;;;10.75;89.98
12146;BME280;6136;47.032;15.398;2024-03-23T07:01:52;96762.56;;;10.80;89.47
12146;BME280;6136;47.032;15.398;2024-03-23T07:04:19;96763.50;;;10.79;89.91
12146;BME280;6136;47.032;15.398;2024-03-23T07:06:45;96760.13;;;10.77;91.07
12146;BME280;6136;47.032;15.398;2024-03-23T07:09:12;96767.53;;;10.61;92.37
12146;BME280;6136;47.032;15.398;2024-03-23T07:11:39;96770.25;;;10.72;91.44
12146;BME280;6136;47.032;15.398;2024-03-23T07:14:07;96757.25;;;10.80;92.72
12146;BME280;6136;47.032;15.398;2024-03-23T07:16:33;96770.72;;;10.66;91.89
12146;BME280;6136;47.032;15.398;2024-03-23T07:19:00;96772.41;;;10.67;92.14
12146;BME280;6136;47.032;15.398;2024-03-23T07:21:26;96761.22;;;10.74;92.03
12146;BME280;6136;47.032;15.398;2024-03-23T07:23:53;96764.66;;;10.64;93.02
12146;BME280;6136;47.032;15.398;2024-03-23T07:26:19;96760.38;;;10.74;92.19
12146;BME280;6136;47.032;15.398;2024-03-23T07:28:46;96763.72;;;10.76;91.34
12146;BME280;6136;47.032;15.398;2024-03-23T07:31:15;96758.69;;;10.84;89.95
12146;BME280;6136;47.032;15.398;2024-03-23T07:33:43;96768.59;;;10.93;89.24
12146;BME280;6136;47.032;15.398;2024-03-23T07:36:10;96757.53;;;10.99;88.49
12146;BME280;6136;47.032;15.398;2024-03-23T07:38:37;96757.78;;;10.96;90.18
12146;BME280;6136;47.032;15.398;2024-03-23T07:41:04;96750.53;;;10.98;89.29
12146;BME280;6136;47.032;15.398;2024-03-23T07:43:31;96751.38;;;10.99;89.91
12146;BME280;6136;47.032;15.398;2024-03-23T07:45:58;96746.22;;;11.08;90.73
12146;BME280;6136;47.032;15.398;2024-03-23T07:48:27;96751.03;;;11.14;91.65
12146;BME280;6136;47.032;15.398;2024-03-23T07:51:01;96750.44;;;11.22;88.18
12146;BME280;6136;47.032;15.398;2024-03-23T07:53:28;96750.59;;;11.32;88.68
12146;BME280;6136;47.032;15.398;2024-03-23T07:55:56;96743.81;;;11.27;88.91
12146;BME280;6136;47.032;15.398;2024-03-23T07:58:23;96747.69;;;11.35;86.70
12146;BME280;6136;47.032;15.398;2024-03-23T08:00:50;96745.63;;;11.49;85.19
12146;BME280;6136;47.032;15.398;2024-03-23T08:03:17;96740.72;;;11.56;84.32
12146;BME280;6136;47.032;15.398;2024-03-23T08:05:44;96750.56;;;11.65;84.81
12146;BME280;6136;47.032;15.398;2024-03-23T08:08:11;96757.84;;;11.74;84.17
12146;BME280;6136;47.032;15.398;2024-03-23T08:10:47;96743.09;;;11.92;85.44
12146;BME280;6136;47.032;15.398;2024-03-23T08:13:14;96734.63;;;11.98;85.52
12146;BME280;6136;47.032;15.398;2024-03-23T08:15:40;96733.00;;;12.18;83.19
12146;BME280;6136;47.032;15.398;2024-03-23T08:18:07;96720.47;;;12.09;85.47
12146;BME280;6136;47.032;15.398;2024-03-23T08:20:33;96723.31;;;12.28;85.86
12146;BME280;6136;47.032;15.398;2024-03-23T08:23:02;96720.59;;;12.39;85.13
12146;BME280;6136;47.032;15.398;2024-03-23T08:25:30;96720.25;;;12.65;83.00
12146;BME280;6136;47.032;15.398;2024-03-23T08:27:58;96708.72;;;12.75;82.36
12146;BME280;6136;47.032;15.398;2024-03-23T08:30:24;96708.31;;;13.01;80.96
12146;BME280;6136;47.032;15.398;2024-03-23T08:32:51;96706.09;;;13.27;78.77
12146;BME280;6136;47.032;15.398;2024-03-23T08:35:18;96707.28;;;13.34;77.71
12146;BME280;6136;47.032;15.398;2024-03-23T08:37:45;96706.28;;;13.35;78.40
12146;BME280;6136;47.032;15.398;2024-03-23T08:40:14;96698.72;;;13.80;76.84
12146;BME280;6136;47.032;15.398;2024-03-23T08:42:41;96696.47;;;14.73;70.84
12146;BME280;6136;47.032;15.398;2024-03-23T08:45:07;96702.78;;;14.82;68.61
12146;BME280;6136;47.032;15.398;2024-03-23T08:47:35;96693.63;;;14.84;64.63
12146;BME280;6136;47.032;15.398;2024-03-23T08:50:01;96696.78;;;15.26;63.04
12146;BME280;6136;47.032;15.398;2024-03-23T08:52:29;96696.31;;;15.31;63.45
12146;BME280;6136;47.032;15.398;2024-03-23T08:54:55;96690.25;;;16.38;59.08
12146;BME280;6136;47.032;15.398;2024-03-23T08:57:24;96686.19;;;18.73;53.22
12146;BME280;6136;47.032;15.398;2024-03-23T08:59:50;96671.91;;;21.88;44.35
12146;BME280;6136;47.032;15.398;2024-03-23T09:02:17;96663.59;;;24.90;37.76
12146;BME280;6136;47.032;15.398;2024-03-23T09:04:44;96655.06;;;25.39;36.20
12146;BME280;6136;47.032;15.398;2024-03-23T09:07:11;96649.16;;;26.77;33.39
12146;BME280;6136;47.032;15.398;2024-03-23T09:09:38;96640.44;;;27.00;31.42
12146;BME280;6136;47.032;15.398;2024-03-23T09:12:05;96628.03;;;27.60;31.36
12146;BME280;6136;47.032;15.398;2024-03-23T09:14:33;96618.50;;;29.60;27.61
12146;BME280;6136;47.032;15.398;2024-03-23T09:17:00;96614.88;;;28.60;28.54
12146;BME280;6136;47.032;15.398;2024-03-23T09:19:27;96609.56;;;28.65;29.65
12146;BME280;6136;47.032;15.398;2024-03-23T09:21:55;96611.13;;;29.26;27.62
12146;BME280;6136;47.032;15.398;2024-03-23T09:24:21;96603.28;;;29.99;26.66
12146;BME280;6136;47.032;15.398;2024-03-23T09:26:48;96599.69;;;27.43;28.71
12146;BME280;6136;47.032;15.398;2024-03-23T09:29:14;96599.88;;;23.38;35.34
12146;BME280;6136;47.032;15.398;2024-03-23T09:31:43;96592.81;;;21.37;37.36
12146;BME280;6136;47.032;15.398;2024-03-23T09:34:09;96595.41;;;21.30;38.90
12146;BME280;6136;47.032;15.398;2024-03-23T09:36:36;96595.19;;;21.03;39.75
12146;BME280;6136;47.032;15.398;2024-03-23T09:39:02;96592.56;;;19.81;43.27
12146;BME280;6136;47.032;15.398;2024-03-23T09:41:31;96595.34;;;19.64;43.31
12146;BME280;6136;47.032;15.398;2024-03-23T09:43:57;96596.50;;;19.70;43.33
12146;BME280;6136;47.032;15.398;2024-03-23T09:46:24;96586.59;;;19.15;45.25
12146;BME280;6136;47.032;15.398;2024-03-23T09:48:52;96580.66;;;18.89;45.68
12146;BME280;6136;47.032;15.398;2024-03-23T09:51:19;96578.69;;;18.58;46.57
12146;BME280;6136;47.032;15.398;2024-03-23T09:53:45;96568.72;;;17.94;48.37
12146;BME280;6136;47.032;15.398;2024-03-23T09:56:13;96575.94;;;18.18;46.83
12146;BME280;6136;47.032;15.398;2024-03-23T09:58:39;96574.09;;;18.10;47.69
12146;BME280;6136;47.032;15.398;2024-03-23T10:01:07;96568.06;;;18.81;46.87
12146;BME280;6136;47.032;15.398;2024-03-23T10:03:42;96565.31;;;19.06;46.89
12146;BME280;6136;47.032;15.398;2024-03-23T10:06:11;96563.31;;;20.08;46.15
12146;BME280;6136;47.032;15.398;2024-03-23T10:08:38;96555.81;;;23.44;40.04
12146;BME280;6136;47.032;15.398;2024-03-23T10:11:13;96542.84;;;25.13;36.69
12146;BME280;6136;47.032;15.398;2024-03-23T10:13:42;96528.28;;;26.80;33.28
12146;BME280;6136;47.032;15.398;2024-03-23T10:16:09;96528.88;;;27.86;31.89
12146;BME280;6136;47.032;15.398;2024-03-23T10:18:40;96533.19;;;27.39;32.13
12146;BME280;6136;47.032;15.398;2024-03-23T10:21:07;96519.47;;;28.60;31.39
12146;BME280;6136;47.032;15.398;2024-03-23T10:23:38;96513.69;;;28.91;31.44
12146;BME280;6136;47.032;15.398;2024-03-23T10:26:18;96506.91;;;30.77;27.49
12146;BME280;6136;47.032;15.398;2024-03-23T10:28:54;96500.78;;;32.03;25.03
12146;BME280;6136;47.032;15.398;2024-03-23T10:31:23;96501.13;;;32.60;24.17
12146;BME280;6136;47.032;15.398;2024-03-23T10:33:51;96496.47;;;30.74;26.69
12146;BME280;6136;47.032;15.398;2024-03-23T10:36:20;96502.53;;;31.27;26.54
12146;BME280;6136;47.032;15.398;2024-03-23T10:38:50;96492.19;;;32.69;25.32
12146;BME280;6136;47.032;15.398;2024-03-23T10:41:17;96501.88;;;32.23;25.07
12146;BME280;6136;47.032;15.398;2024-03-23T10:43:45;96488.19;;;32.55;24.56
12146;BME280;6136;47.032;15.398;2024-03-23T10:46:12;96477.78;;;29.18;28.61
12146;BME280;6136;47.032;15.398;2024-03-23T10:48:39;96489.59;;;31.82;24.96
12146;BME280;6136;47.032;15.398;2024-03-23T10:51:07;96469.28;;;33.28;23.38
12146;BME280;6136;47.032;15.398;2024-03-23T10:53:35;96472.56;;;32.83;24.33
12146;BME280;6136;47.032;15.398;2024-03-23T10:56:05;96462.84;;;32.16;22.94
12146;BME280;6136;47.032;15.398;2024-03-23T10:58:40;96456.09;;;32.02;23.50
12146;BME280;6136;47.032;15.398;2024-03-23T11:01:07;96447.66;;;32.62;24.35
12146;BME280;6136;47.032;15.398;2024-03-23T11:03:38;96443.38;;;33.66;20.39
12146;BME280;6136;47.032;15.398;2024-03-23T11:06:05;96441.31;;;33.36;21.25
12146;BME280;6136;47.032;15.398;2024-03-23T11:08:35;96432.56;;;33.39;21.02
12146;BME280;6136;47.032;15.398;2024-03-23T11:11:17;96420.47;;;32.93;21.75
12146;BME280;6136;47.032;15.398;2024-03-23T11:13:44;96400.16;;;34.39;20.21
12146;BME280;6136;47.032;15.398;2024-03-23T11:16:14;96405.38;;;33.42;21.49
12146;BME280;6136;47.032;15.398;2024-03-23T11:18:42;96398.75;;;33.33;22.04
12146;BME280;6136;47.032;15.398;2024-03-23T11:21:09;96393.47;;;33.79;21.51
12146;BME280;6136;47.032;15.398;2024-03-23T11:23:36;96385.78;;;33.91;21.54
12146;BME280;6136;47.032;15.398;2024-03-23T11:26:07;96377.78;;;33.79;22.56
12146;BME280;6136;47.032;15.398;2024-03-23T11:28:35;96379.25;;;34.63;21.03
12146;BME280;6136;47.032;15.398;2024-03-23T11:31:09;96371.28;;;34.41;20.62
12146;BME280;6136;47.032;15.398;2024-03-23T11:33:36;96363.31;;;34.80;20.54
12146;BME280;6136;47.032;15.398;2024-03-23T11:36:03;96364.41;;;34.64;20.80
12146;BME280;6136;47.032;15.398;2024-03-23T11:38:36;96347.31;;;34.11;21.97
12146;BME280;6136;47.032;15.398;2024-03-23T11:41:03;96344.56;;;32.34;23.82
12146;BME280;6136;47.032;15.398;2024-03-23T11:43:31;96334.69;;;33.18;22.57
12146;BME280;6136;47.032;15.398;2024-03-23T11:45:58;96326.44;;;34.56;21.03
12146;BME280;6136;47.032;15.398;2024-03-23T11:48:28;96320.94;;;34.15;21.29
12146;BME280;6136;47.032;15.398;2024-03-23T11:50:57;96319.84;;;34.21;20.75
12146;BME280;6136;47.032;15.398;2024-03-23T11:53:25;96325.75;;;33.52;21.21
12146;BME280;6136;47.032;15.398;2024-03-23T11:55:54;96309.56;;;33.66;21.10
12146;BME280;6136;47.032;15.398;2024-03-23T11:58:24;96296.84;;;33.30;21.98
12146;BME280;6136;47.032;15.398;2024-03-23T12:00:50;96289.72;;;32.03;23.98
12146;BME280;6136;47.032;15.398;2024-03-23T12:03:20;96287.59;;;31.51;24.22
12146;BME280;6136;47.032;15.398;2024-03-23T12:05:48;96278.53;;;33.66;21.99
12146;BME280;6136;47.032;15.398;2024-03-23T12:08:20;96275.38;;;32.64;23.21
12146;BME280;6136;47.032;15.398;2024-03-23T12:10:49;96267.97;;;32.65;24.15
12146;BME280;6136;47.032;15.398;2024-03-23T12:13:17;96248.81;;;33.27;22.89
12146;BME280;6136;47.032;15.398;2024-03-23T12:15:44;96252.31;;;30.84;25.28
12146;BME280;6136;47.032;15.398;2024-03-23T12:18:11;96240.88;;;30.87;26.16
12146;BME280;6136;47.032;15.398;2024-03-23T12:20:39;96240.97;;;31.41;25.13
12146;BME280;6136;47.032;15.398;2024-03-23T12:23:08;96234.28;;;30.23;26.37
12146;BME280;6136;47.032;15.398;2024-03-23T12:25:35;96227.84;;;30.51;25.29
12146;BME280;6136;47.032;15.398;2024-03-23T12:28:03;96224.34;;;29.66;27.39
12146;BME280;6136;47.032;15.398;2024-03-23T12:30:32;96222.78;;;29.70;27.22
12146;BME280;6136;47.032;15.398;2024-03-23T12:33:00;96220.97;;;28.74;27.06
12146;BME280;6136;47.032;15.398;2024-03-23T12:35:26;96213.31;;;29.00;27.16
12146;BME280;6136;47.032;15.398;2024-03-23T12:37:55;96215.34;;;27.48;27.97
12146;BME280;6136;47.032;15.398;2024-03-23T12:40:21;96197.56;;;27.33;28.23
12146;BME280;6136;47.032;15.398;2024-03-23T12:42:48;96200.88;;;26.76;30.46
12146;BME280;6136;47.032;15.398;2024-03-23T12:45:15;96203.81;;;26.44;30.55
12146;BME280;6136;47.032;15.398;2024-03-23T12:47:42;96200.44;;;26.79;29.76
12146;BME280;6136;47.032;15.398;2024-03-23T12:50:09;96187.97;;;27.19;28.78
12146;BME280;6136;47.032;15.398;2024-03-23T12:52:36;96195.50;;;28.05;28.06
12146;BME280;6136;47.032;15.398;2024-03-23T12:55:04;96193.03;;;27.92;26.89
12146;BME280;6136;47.032;15.398;2024-03-23T12:57:32;96185.75;;;28.73;27.68
12146;BME280;6136;47.032;15.398;2024-03-23T12:59:59;96182.25;;;27.74;27.85
12146;BME280;6136;47.032;15.398;2024-03-23T13:02:26;96181.97;;;28.10;26.78
12146;BME280;6136;47.032;15.398;2024-03-23T13:04:52;96176.47;;;28.57;26.58
12146;BME280;6136;47.032;15.398;2024-03-23T13:07:20;96168.72;;;27.79;27.55
12146;BME280;6136;47.032;15.398;2024-03-23T13:09:49;96175.53;;;27.12;27.36
12146;BME280;6136;47.032;15.398;2024-03-23T13:12:18;96173.00;;;27.75;26.43
12146;BME280;6136;47.032;15.398;2024-03-23T13:14:44;96160.22;;;28.22;26.01
12146;BME280;6136;47.032;15.398;2024-03-23T13:17:11;96158.53;;;28.09;28.67
12146;BME280;6136;47.032;15.398;2024-03-23T13:19:37;96150.97;;;28.23;26.85
12146;BME280;6136;47.032;15.398;2024-03-23T13:22:05;96155.19;;;28.82;26.20
12146;BME280;6136;47.032;15.398;2024-03-23T13:24:31;96144.31;;;28.31;25.93
12146;BME280;6136;47.032;15.398;2024-03-23T13:26:58;96141.03;;;27.94;26.27
12146;BME280;6136;47.032;15.398;2024-03-23T13:29:26;96146.03;;;27.73;25.65
12146;BME280;6136;47.032;15.398;2024-03-23T13:31:53;96146.63;;;28.39;25.16
12146;BME280;6136;47.032;15.398;2024-03-23T13:34:19;96141.06;;;28.45;24.65
12146;BME280;6136;47.032;15.398;2024-03-23T13:36:47;96139.53;;;27.63;27.07
12146;BME280;6136;47.032;15.398;2024-03-23T13:39:14;96139.13;;;27.24;28.06
12146;BME280;6136;47.032;15.398;2024-03-23T13:41:42;96137.28;;;27.60;27.41
12146;BME280;6136;47.032;15.398;2024-03-23T13:44:09;96123.22;;;28.38;26.44
12146;BME280;6136;47.032;15.398;2024-03-23T13:46:39;96128.53;;;28.33;26.96
12146;BME280;6136;47.032;15.398;2024-03-23T13:49:05;96131.09;;;27.99;26.34
12146;BME280;6136;47.032;15.398;2024-03-23T13:51:32;96122.72;;;28.41;27.45
12146;BME280;6136;47.032;15.398;2024-03-23T13:53:59;96122.25;;;28.32;25.01
12146;BME280;6136;47.032;15.398;2024-03-23T13:56:27;96128.75;;;28.71;24.59
12146;BME280;6136;47.032;15.398;2024-03-23T13:58:54;96108.47;;;27.87;25.17